createdAt,value
2022-07-27T00:01:50.912Z,54.61
2022-07-27T00:04:37.620Z,54.55
2022-07-27T00:07:40.641Z,54.45
2022-07-27T00:10:19.457Z,54.65
2022-07-27T00:36:52.186Z,53.97
2022-07-27T00:47:55.980Z,53.28
2022-07-27T00:51:09.749Z,52.65
2022-07-27T00:54:17.002Z,52.78
2022-07-27T00:57:10.099Z,52.77
2022-07-27T01:00:52.280Z,52.68
2022-07-27T01:03:37.055Z,52.90
2022-07-27T01:06:26.992Z,52.66
2022-07-27T01:09:42.130Z,53.04
2022-07-27T01:12:47.537Z,52.72
2022-07-27T01:15:35.273Z,53.00
2022-07-27T01:22:20.065Z,53.20
2022-07-27T01:25:36.221Z,53.48
2022-07-27T01:31:52.471Z,53.70
2022-07-27T01:34:56.821Z,53.68
2022-07-27T01:43:33.942Z,54.07
2022-07-27T01:49:22.008Z,53.69
2022-07-27T01:52:00.505Z,54.29
2022-07-27T01:54:49.830Z,54.42
2022-07-27T02:03:19.389Z,54.62
2022-07-27T02:08:37.183Z,55.34
2022-07-27T02:11:28.324Z,55.24
2022-07-27T02:14:05.106Z,55.06
2022-07-27T02:16:34.592Z,54.20
2022-07-27T02:19:34.039Z,54.78
2022-07-27T02:47:40.288Z,54.53
2022-07-27T02:56:06.311Z,55.49
2022-07-27T03:08:19.326Z,55.87
2022-07-27T03:11:26.118Z,55.80
2022-07-27T03:14:21.498Z,56.30
2022-07-27T03:25:30.078Z,56.44
2022-07-27T03:28:03.536Z,56.36
2022-07-27T03:30:32.714Z,56.28
2022-07-27T03:33:01.039Z,56.97
2022-07-27T03:35:29.079Z,56.73
2022-07-27T03:37:57.328Z,56.83
2022-07-27T03:40:26.169Z,57.21
2022-07-27T03:42:55.565Z,57.47
2022-07-27T03:45:23.806Z,57.00
2022-07-27T03:47:51.996Z,57.12
2022-07-27T03:50:20.746Z,57.62
2022-07-27T03:52:48.818Z,57.65
2022-07-27T03:55:17.061Z,57.18
2022-07-27T03:57:45.249Z,57.20
2022-07-27T04:00:16.087Z,57.64
2022-07-27T04:02:44.188Z,57.45
2022-07-27T04:05:12.627Z,57.32
2022-07-27T04:07:41.664Z,57.02
2022-07-27T04:10:11.047Z,57.31
2022-07-27T04:12:39.889Z,57.45
2022-07-27T04:15:10.321Z,57.69
2022-07-27T04:17:55.448Z,57.92
2022-07-27T04:20:25.028Z,58.02
2022-07-27T04:22:53.212Z,57.85
2022-07-27T04:25:22.158Z,58.13
2022-07-27T04:27:51.021Z,57.87
2022-07-27T04:30:19.220Z,58.16
2022-07-27T04:32:48.650Z,58.21
2022-07-27T04:35:16.920Z,57.97
2022-07-27T04:37:59.010Z,58.14
2022-07-27T04:40:31.114Z,57.79
2022-07-27T04:42:59.304Z,57.53
2022-07-27T04:45:27.687Z,56.99
2022-07-27T04:47:57.305Z,57.03
2022-07-27T04:50:25.615Z,56.73
2022-07-27T04:52:53.638Z,56.89
2022-07-27T04:55:21.655Z,56.45
2022-07-27T04:57:49.879Z,56.54
2022-07-27T05:00:18.794Z,56.01
2022-07-27T05:02:46.872Z,55.47
2022-07-27T05:05:16.246Z,56.37
2022-07-27T05:07:44.258Z,56.01
2022-07-27T05:10:16.581Z,55.32
2022-07-27T05:12:47.823Z,54.55
2022-07-27T05:15:16.397Z,53.66
2022-07-27T05:17:44.489Z,53.63
2022-07-27T05:20:13.800Z,52.36
2022-07-27T05:22:43.228Z,52.74
2022-07-27T05:25:12.027Z,51.53
2022-07-27T05:27:51.032Z,50.50
2022-07-27T05:30:27.704Z,49.50
2022-07-27T05:33:07.476Z,47.95
2022-07-27T05:35:35.858Z,44.31
2022-07-27T05:40:48.905Z,39.83
2022-07-27T05:43:17.302Z,38.87
2022-07-27T05:45:45.448Z,36.62
2022-07-27T05:48:13.838Z,35.37
2022-07-27T05:50:41.804Z,35.08
2022-07-27T05:53:11.126Z,34.45
2022-07-27T05:55:58.296Z,33.27
2022-07-27T05:58:28.373Z,32.11
2022-07-27T06:00:59.856Z,31.31
2022-07-27T06:03:28.645Z,29.98
2022-07-27T06:06:17.897Z,29.28
2022-07-27T06:08:52.019Z,28.38
2022-07-27T06:25:38.917Z,24.50
2022-07-27T06:28:57.484Z,25.04
2022-07-27T07:02:24.716Z,18.06
2022-07-27T07:04:54.159Z,17.38
2022-07-27T07:07:22.101Z,17.19
2022-07-27T07:09:49.989Z,17.00
2022-07-27T07:12:18.331Z,16.70
2022-07-27T07:14:46.340Z,16.32
2022-07-27T07:17:14.404Z,15.89
2022-07-27T07:19:42.198Z,15.96
2022-07-27T07:22:11.441Z,15.11
2022-07-27T07:24:39.249Z,14.83
2022-07-27T07:27:07.091Z,14.04
2022-07-27T07:29:34.993Z,13.89
2022-07-27T07:32:02.765Z,13.55
2022-07-27T07:34:30.609Z,13.41
2022-07-27T07:36:58.414Z,12.86
2022-07-27T07:39:31.323Z,13.72
2022-07-27T07:41:59.500Z,13.03
2022-07-27T07:44:27.384Z,12.92
2022-07-27T07:46:55.267Z,12.75
2022-07-27T07:49:33.340Z,12.45
2022-07-27T07:52:08.172Z,12.07
2022-07-27T07:54:37.293Z,12.26
2022-07-27T07:57:05.256Z,11.74
2022-07-27T07:59:33.114Z,12.34
2022-07-27T08:02:03.219Z,12.81
2022-07-27T08:04:31.195Z,12.59
2022-07-27T08:06:59.128Z,12.19
2022-07-27T08:09:28.387Z,11.81
2022-07-27T08:11:57.783Z,11.83
2022-07-27T08:14:26.417Z,11.15
2022-07-27T08:16:54.182Z,10.97
2022-07-27T08:19:21.990Z,10.18
2022-07-27T08:21:49.804Z,10.71
2022-07-27T08:24:17.759Z,11.04
2022-07-27T08:26:45.546Z,10.44
2022-07-27T08:29:15.205Z,10.59
2022-07-27T08:31:52.492Z,12.53
2022-07-27T08:34:21.389Z,15.08
2022-07-27T08:36:49.422Z,17.18
2022-07-27T08:42:38.555Z,19.13
2022-07-27T08:45:09.728Z,16.73
2022-07-27T08:47:45.601Z,15.74
2022-07-27T08:50:24.308Z,15.13
2022-07-27T08:52:56.847Z,13.88
2022-07-27T08:55:25.357Z,12.03
2022-07-27T08:57:54.956Z,12.79
2022-07-27T09:00:28.246Z,12.43
2022-07-27T09:02:57.244Z,12.39
2022-07-27T09:05:25.209Z,10.70
2022-07-27T09:08:10.857Z,9.97
2022-07-27T09:10:39.286Z,11.93
2022-07-27T09:13:22.065Z,14.64
2022-07-27T09:18:41.632Z,18.55
2022-07-27T09:21:15.797Z,19.28
2022-07-27T09:23:48.365Z,17.51
2022-07-27T09:34:32.230Z,14.44
2022-07-27T09:37:11.136Z,16.97
2022-07-27T09:39:39.078Z,18.52
2022-07-27T09:42:08.306Z,19.69
2022-07-27T09:44:43.035Z,18.16
2022-07-27T09:47:26.403Z,18.21
2022-07-27T09:49:57.251Z,18.77
2022-07-27T09:52:34.902Z,17.90
2022-07-27T09:55:05.254Z,17.21
2022-07-27T09:57:52.328Z,18.10
2022-07-27T10:00:22.020Z,18.83
2022-07-27T10:02:51.393Z,20.60
2022-07-27T10:05:23.795Z,22.48
2022-07-27T10:08:58.077Z,24.19
2022-07-27T10:11:28.632Z,22.27
2022-07-27T10:13:59.329Z,22.38
2022-07-27T10:16:31.652Z,23.53
2022-07-27T10:19:08.563Z,23.81
2022-07-27T10:21:38.736Z,24.48
2022-07-27T10:24:10.437Z,24.84
2022-07-27T10:26:58.627Z,24.88
2022-07-27T10:29:27.184Z,21.95
2022-07-27T10:32:00.922Z,22.03
2022-07-27T10:34:37.602Z,22.84
2022-07-27T10:37:10.456Z,20.29
2022-07-27T10:39:43.002Z,21.36
2022-07-27T10:42:29.201Z,20.52
2022-07-27T10:45:03.445Z,20.95
2022-07-27T10:47:40.392Z,21.91
2022-07-27T10:50:30.846Z,22.50
2022-07-27T10:53:02.255Z,21.97
2022-07-27T10:55:58.525Z,22.78
2022-07-27T10:58:46.539Z,23.08
2022-07-27T11:01:16.236Z,23.45
2022-07-27T11:03:52.360Z,24.51
2022-07-27T11:53:59.679Z,24.99
2022-07-27T11:57:24.286Z,25.29
2022-07-27T11:59:53.858Z,25.43
2022-07-27T12:02:22.636Z,26.36
2022-07-27T12:04:53.229Z,25.72
2022-07-27T12:07:24.040Z,25.33
2022-07-27T12:09:55.667Z,25.31
2022-07-27T12:12:25.979Z,26.50
2022-07-27T12:14:57.534Z,25.58
2022-07-27T12:17:30.858Z,25.59
2022-07-27T12:20:01.835Z,26.79
2022-07-27T12:22:32.924Z,25.98
2022-07-27T12:25:11.296Z,26.64
2022-07-27T12:27:55.188Z,26.16
2022-07-27T12:30:32.199Z,26.77
2022-07-27T12:33:00.953Z,25.63
2022-07-27T12:35:37.059Z,27.49
2022-07-27T12:38:08.920Z,25.76
2022-07-27T12:40:45.834Z,27.62
2022-07-27T12:43:18.147Z,27.34
2022-07-27T12:45:49.134Z,26.69
2022-07-27T12:48:19.452Z,28.11
2022-07-27T12:50:49.498Z,28.77
2022-07-27T12:53:18.405Z,29.03
2022-07-27T12:55:46.609Z,27.22
2022-07-27T12:58:15.315Z,27.64
2022-07-27T13:00:44.111Z,27.98
2022-07-27T13:03:13.595Z,27.19
2022-07-27T13:05:42.431Z,27.89
2022-07-27T13:08:10.927Z,28.77
2022-07-27T13:10:39.585Z,29.07
2022-07-27T13:13:09.093Z,29.69
2022-07-27T13:15:37.421Z,29.13
2022-07-27T13:18:05.531Z,29.23
2022-07-27T13:20:35.145Z,28.75
2022-07-27T13:23:03.154Z,29.81
2022-07-27T13:25:31.299Z,30.96
2022-07-27T13:27:59.426Z,29.94
2022-07-27T13:30:27.468Z,29.10
2022-07-27T13:32:55.533Z,30.64
2022-07-27T13:35:23.626Z,29.82
2022-07-27T13:37:53.546Z,28.32
2022-07-27T13:40:21.924Z,29.76
2022-07-27T13:42:50.064Z,29.56
2022-07-27T13:45:18.207Z,29.03
2022-07-27T13:47:46.454Z,27.91
2022-07-27T13:50:19.255Z,28.92
2022-07-27T13:52:48.527Z,29.28
2022-07-27T13:55:19.095Z,29.78
2022-07-27T13:57:48.100Z,28.12
2022-07-27T14:00:17.692Z,27.71
2022-07-27T14:02:46.344Z,27.79
2022-07-27T14:05:15.823Z,29.30
2022-07-27T14:07:44.863Z,28.26
2022-07-27T14:10:31.418Z,28.89
2022-07-27T14:13:07.713Z,28.97
2022-07-27T14:15:53.149Z,29.58
2022-07-27T14:18:27.472Z,29.68
2022-07-27T14:20:56.142Z,28.54
2022-07-27T14:23:26.164Z,29.04
2022-07-27T14:25:55.397Z,28.78
2022-07-27T14:28:50.348Z,28.00
2022-07-27T14:32:04.707Z,29.01
2022-07-27T14:36:08.585Z,28.94
2022-07-27T14:38:40.886Z,28.86
2022-07-27T14:46:02.569Z,29.18
2022-07-27T14:51:19.426Z,28.93
2022-07-27T14:53:47.713Z,28.35
2022-07-27T14:56:16.056Z,29.52
2022-07-27T14:58:44.784Z,29.05
2022-07-27T15:01:16.901Z,29.76
2022-07-27T15:03:46.250Z,28.99
2022-07-27T15:06:14.298Z,29.99
2022-07-27T15:08:42.377Z,30.55
2022-07-27T15:11:11.336Z,31.05
2022-07-27T15:13:40.640Z,29.77
2022-07-27T15:16:09.403Z,30.42
2022-07-27T15:18:39.919Z,30.38
2022-07-27T15:21:12.974Z,29.56
2022-07-27T15:23:48.956Z,30.31
2022-07-27T15:26:17.984Z,29.46
2022-07-27T15:28:45.979Z,30.11
2022-07-27T15:31:14.632Z,31.16
2022-07-27T15:33:45.365Z,31.62
2022-07-27T15:36:32.035Z,31.73
2022-07-27T15:39:02.607Z,31.46
2022-07-27T15:41:37.180Z,31.05
2022-07-27T15:44:05.976Z,30.71
2022-07-27T15:46:34.817Z,30.56
2022-07-27T15:49:04.840Z,31.42
2022-07-27T15:51:33.158Z,30.74
2022-07-27T15:54:01.223Z,30.50
2022-07-27T15:56:29.430Z,29.89
2022-07-27T15:58:57.542Z,30.77
2022-07-27T16:01:35.306Z,30.42
2022-07-27T16:04:06.310Z,30.68
2022-07-27T16:06:39.145Z,30.96
2022-07-27T16:12:12.219Z,29.04
2022-07-27T16:14:45.362Z,30.06
2022-07-27T16:23:55.394Z,31.52
2022-07-27T16:26:23.771Z,31.39
2022-07-27T16:28:52.967Z,32.05
2022-07-27T16:31:21.044Z,30.59
2022-07-27T16:33:54.984Z,31.34
2022-07-27T16:36:24.367Z,31.39
2022-07-27T16:38:53.361Z,31.97
2022-07-27T16:41:22.315Z,32.21
2022-07-27T16:43:50.851Z,31.77
2022-07-27T16:46:19.097Z,32.66
2022-07-27T16:48:47.848Z,31.97
2022-07-27T16:51:16.541Z,32.63
2022-07-27T16:53:47.892Z,32.63
2022-07-27T16:56:15.760Z,32.67
2022-07-27T16:58:44.381Z,31.98
2022-07-27T17:01:22.352Z,33.36
2022-07-27T17:03:58.550Z,33.65
2022-07-27T17:06:27.075Z,32.51
2022-07-27T17:08:56.594Z,32.82
2022-07-27T17:11:24.971Z,32.98
2022-07-27T17:13:58.890Z,33.58
2022-07-27T17:16:28.038Z,33.76
2022-07-27T17:18:56.532Z,32.65
2022-07-27T17:21:24.643Z,33.15
2022-07-27T17:24:21.538Z,33.61
2022-07-27T17:34:56.237Z,33.18
2022-07-27T17:37:24.007Z,33.93
2022-07-27T17:39:51.739Z,34.33
2022-07-27T17:42:19.510Z,33.48
2022-07-27T17:44:47.300Z,34.18
2022-07-27T17:47:15.230Z,34.08
2022-07-27T17:49:43.705Z,35.95
2022-07-27T17:52:12.954Z,36.82
2022-07-27T17:58:34.260Z,36.04
2022-07-27T18:01:02.749Z,37.40
2022-07-27T18:03:30.495Z,39.29
2022-07-27T18:05:58.651Z,40.10
2022-07-27T18:08:28.183Z,36.58
2022-07-27T18:10:56.144Z,37.69
2022-07-27T18:13:23.944Z,39.03
2022-07-27T18:16:08.146Z,39.98
2022-07-27T18:18:37.027Z,39.86
2022-07-27T18:21:05.750Z,40.81
2022-07-27T18:23:35.357Z,40.83
2022-07-27T18:26:03.275Z,40.92
2022-07-27T18:28:37.287Z,41.75
2022-07-27T18:31:07.616Z,41.70
2022-07-27T18:37:01.968Z,42.87
2022-07-27T18:39:32.222Z,43.53
2022-07-27T18:42:03.587Z,43.31
2022-07-27T18:44:38.444Z,42.79
2022-07-27T18:47:06.883Z,43.31
2022-07-27T18:49:34.694Z,43.40
2022-07-27T18:52:02.516Z,43.60
2022-07-27T18:54:31.614Z,44.36
2022-07-27T18:56:59.872Z,44.85
2022-07-27T18:59:27.640Z,44.88
2022-07-27T19:01:55.547Z,45.57
2022-07-27T19:04:24.789Z,45.68
2022-07-27T19:06:52.755Z,46.73
2022-07-27T19:09:21.400Z,46.50
2022-07-27T19:11:50.480Z,47.40
2022-07-27T19:14:22.747Z,48.21
2022-07-27T19:16:51.157Z,47.82
2022-07-27T19:19:23.038Z,48.22
2022-07-27T19:21:51.356Z,48.39
2022-07-27T19:24:19.593Z,49.17
2022-07-27T19:26:47.360Z,49.13
2022-07-27T19:29:17.950Z,49.58
2022-07-27T19:31:45.701Z,49.92
2022-07-27T19:34:13.715Z,50.64
2022-07-27T19:36:41.932Z,51.01
2022-07-27T19:39:10.233Z,51.09
2022-07-27T19:41:40.074Z,51.49
2022-07-27T19:44:08.557Z,51.69
2022-07-27T19:46:38.529Z,51.27
2022-07-27T19:49:06.343Z,51.77
2022-07-27T19:51:34.139Z,52.21
2022-07-27T19:54:01.921Z,52.13
2022-07-27T19:56:32.782Z,52.52
2022-07-27T19:59:04.931Z,52.69
2022-07-27T20:01:32.731Z,53.09
2022-07-27T20:04:05.227Z,52.94
2022-07-27T20:06:34.600Z,53.28
2022-07-27T20:09:02.339Z,53.40
2022-07-27T20:11:31.013Z,53.42
2022-07-27T20:13:59.239Z,53.79
2022-07-27T20:16:29.663Z,53.79
2022-07-27T20:18:57.525Z,53.70
2022-07-27T20:21:27.056Z,53.80
2022-07-27T20:23:57.317Z,54.20
2022-07-27T20:26:25.209Z,54.91
2022-07-27T20:28:53.207Z,54.62
2022-07-27T20:31:21.273Z,54.90
2022-07-27T20:33:49.190Z,55.30
2022-07-27T20:36:16.963Z,54.87
2022-07-27T20:38:46.038Z,54.95
2022-07-27T20:41:13.892Z,55.43
2022-07-27T20:43:41.740Z,55.21
2022-07-27T20:46:09.606Z,55.57
2022-07-27T20:48:38.366Z,55.92
2022-07-27T20:51:06.147Z,56.19
2022-07-27T20:53:33.974Z,56.15
2022-07-27T20:56:03.076Z,56.39
2022-07-27T20:58:31.530Z,56.35
2022-07-27T21:00:59.667Z,56.92
2022-07-27T21:03:27.936Z,57.23
2022-07-27T21:05:55.791Z,57.38
2022-07-27T21:08:23.556Z,57.61
2022-07-27T21:10:51.318Z,57.36
2022-07-27T21:13:20.610Z,57.49
2022-07-27T21:15:48.424Z,58.06
2022-07-27T21:18:16.252Z,57.80
2022-07-27T21:20:44.005Z,57.93
2022-07-27T21:23:38.026Z,57.93
2022-07-27T21:26:05.976Z,57.83
2022-07-27T21:28:36.338Z,58.03
2022-07-27T21:31:04.615Z,58.57
2022-07-27T21:33:37.577Z,58.76
2022-07-27T21:36:07.738Z,58.42
2022-07-27T21:38:35.549Z,58.69
2022-07-27T21:41:03.303Z,58.53
2022-07-27T21:43:33.052Z,58.82
2022-07-27T21:46:02.214Z,58.70
2022-07-27T21:48:30.003Z,58.85
2022-07-27T21:50:59.332Z,59.16
2022-07-27T21:53:27.112Z,59.20
2022-07-27T21:55:54.855Z,59.16
2022-07-27T21:58:29.343Z,59.30
2022-07-27T22:01:10.851Z,59.26
2022-07-27T22:04:00.471Z,59.17
2022-07-27T22:06:32.879Z,59.64
2022-07-27T22:09:01.282Z,59.43
2022-07-27T22:11:30.797Z,59.71
2022-07-27T22:14:02.932Z,59.79
2022-07-27T22:16:39.615Z,59.75
2022-07-27T22:19:07.949Z,59.70
2022-07-27T22:21:37.725Z,59.79
2022-07-27T22:24:15.954Z,60.14
2022-07-27T22:26:46.964Z,60.18
2022-07-27T22:29:14.772Z,60.59
2022-07-27T22:31:50.229Z,60.24
2022-07-27T22:34:24.226Z,60.75
2022-07-27T22:36:58.505Z,60.70
2022-07-27T22:39:26.460Z,60.90
2022-07-27T22:41:54.268Z,60.57
2022-07-27T22:44:22.453Z,60.88
2022-07-27T22:46:51.654Z,61.21
2022-07-27T22:49:19.568Z,60.99
2022-07-27T22:51:49.504Z,61.24
2022-07-27T22:54:20.777Z,61.15
2022-07-27T22:56:48.675Z,61.22
2022-07-27T22:59:16.505Z,61.34
2022-07-27T23:01:47.339Z,61.90
2022-07-27T23:04:28.389Z,61.85
2022-07-27T23:06:57.761Z,61.61
2022-07-27T23:09:27.593Z,62.38
2022-07-27T23:12:01.491Z,62.06
2022-07-27T23:14:30.575Z,62.31
2022-07-27T23:17:02.898Z,62.29
2022-07-27T23:19:32.248Z,62.31
2022-07-27T23:22:01.714Z,62.26
2022-07-27T23:24:29.814Z,62.44
2022-07-27T23:26:58.110Z,62.70
2022-07-27T23:29:26.292Z,62.73
2022-07-27T23:31:54.482Z,62.52
2022-07-27T23:34:25.393Z,62.42
2022-07-27T23:36:55.243Z,62.91
2022-07-27T23:39:24.442Z,63.08
2022-07-27T23:41:52.539Z,62.75
2022-07-27T23:44:20.382Z,62.93
2022-07-27T23:46:48.518Z,62.74
2022-07-27T23:49:16.625Z,63.06
2022-07-27T23:51:45.642Z,62.92
2022-07-27T23:54:16.285Z,63.08
2022-07-27T23:56:44.263Z,62.98
2022-07-27T23:59:12.643Z,63.06
